Houtzdale, PA (16651)

5:00 PM EST on January 23, 2017 (GMT -0500)
The Garden | | Change Station
Active Advisory: Winter Weather Advisory Active Notice: Public Information Statement

Elev 1578 ft 40.79 °N, 78.37 °W | Updated 21 seconds ago

Rain
Rain
34.5 °F
Feels Like 34 °F
N
1.3
Wind Variable Wind from East
Gusts 2.5 mph

Today
High -- | Low -- °F
--% Chance of Precip.
Yesterday
High -- | Low -- °F
Precip. -- in
Pressure 29.66 in
Visibility 4.0 miles
Clouds Scattered Clouds 1400 ft
Mostly Cloudy 2000 ft
Overcast 2500 ft
Windchill 34 °F
Dew Point 17 °F
Humidity 49%
Rainfall 0.02 in
Snow Depth Not available.
7:30 AM 5:20 PM
Waning Crescent, 16% visible
METAR KFIG 232154Z AUTO 08005KT 4SM RA BR SCT014 BKN020 OVC025 02/01 A2963 RMK AO2 SLP042 P0011 T00170011
Pressure 29.66 in
Visibility 4.0 miles
Clouds Scattered Clouds 1400 ft
Mostly Cloudy 2000 ft
Overcast 2500 ft
Windchill 34 °F
Dew Point 17 °F
Humidity 49%
Rainfall 0.02 in
Snow Depth Not available.
7:30 AM 5:20 PM
Waning Crescent, 16% visible
METAR KFIG 232154Z AUTO 08005KT 4SM RA BR SCT014 BKN020 OVC025 02/01 A2963 RMK AO2 SLP042 P0011 T00170011

Get Your Daily Forecast Email!

Thanks for signing up!

Be on the lookout for a verification email in your inbox.

You'll start receiving the daily forecast at 8 AM.

×

10-Day Weather Forecast

Almanac

Astronomy

Jan. 23, 2017 Rise Set
Actual Time
Civil Twilight
Nautical Twilight
Astronomical Twilight
Moon
Length of Visible Light
Length of Day
Tomorrow will be .
, % of the Moon is Illuminated

Today's Extremes

State Highs State Lows

Community

WunderPhotos

Upload Photos

1,962,540 photos uploaded!

WunderBlog® & News

Nearby

Air Quality

  Air Quality AQ Index Pollutant
Not available.

Snow Depth

Station Depth Elevation

Earthquake Activity

City Distance Mag. Time & Date
Minimum magnitude displayed is 2.5.

Coastal Water Temperatures

Place Temperature

Stations

Nearby Weather Stations

Station Location Temp. Windchill Dew Point Humidity Wind Precip. Elev Updated Type
                   

Watches & Warnings

Winter Weather Advisory
Issued: 4:22 PM EST Jan. 23, 2017 – National Weather Service

... Winter Weather Advisory remains in effect until 7 am EST
Tuesday...

Hazardous weather...

* rain will mix with and change to snow early this evening.
Snow will fall heavy at times tonight into early Tuesday
morning and may mix with sleet before ending by Tuesday afternoon.

* Snow and sleet accumulations 3 to 6 inches. Snow will be heavy and wet
with maximum amounts in the highest elevations. Lower amounts
expected in the valleys.

Impacts...

* hazardous travel on snow covered roads. Longer commute times
Monday evening and Tuesday morning. Gusty winds and heavy wet
snow may result in isolated power outages.

Precautionary/preparedness actions...

The Pennsylvania Department of Transportation reminds motorists
to adjust speeds based on driving conditions and to take it slow
in ice and snow.